Aérodrome :







RETROUVEZ-NOUS SUR...

 
LOGIN :

S'inscrire | Disclaimer

   EN    FR    IT 

 









Légende :    VFR   VFR Marginal   IFR   IFR Intensif   IFR Très Intensif
Visi : 
Plafond : 
>= 8 km
>= 3000ft
5 à 8 km
1000 à 3000 ft
1500m à 5 km
500 à 1000 ft
800 à 1500m
200 à 500 ft
< 800m
< 200 ft
Symboles :   Orages  Brouillard  Fortes neiges  Fortes précipitations  Vent > 20 kt






- Altitude de l'aérodrome : 1442 ft
- Code IATA : ZUM


CZUM - Churchill Falls

DERNIER METAR :
  • 031639Z AUTO 23008G17KT 200V280 9SM SCT013 BKN030 BKN041 OVC050 01/M01 A2942 RMK SLP982

METARs EXPIRÉS :
  • 031627Z AUTO 24009G21KT 190V270 8SM -SN SCT009 BKN015 BKN030 OVC041 01/M01 A2941 RMK SLP981
  • 031600Z AUTO 17011G18KT 140V210 9SM -RA BKN012 OVC018 01/01 A2939 RMK SLP973
  • 031546Z AUTO 17008KT 9SM -RA BKN010 OVC017 01/01 A2939 RMK SLP975
  • 031515Z AUTO 16008KT 120V190 9SM -RA BKN008 OVC013 01/01 A2940 RMK SLP977
  • 031504Z AUTO 16008KT 9SM -RA BKN006 BKN009 OVC015 01/01 A2940 RMK SLP978
  • 031456Z AUTO 14008KT 9SM -RA SCT006 BKN009 OVC014 01/01 A2940 RMK SLP978
  • 031414Z AUTO 13006KT 9SM -RA BKN006 OVC015 01/01 A2942 RMK SLP985
  • 031408Z AUTO 14007KT 9SM -RA -UP BKN006 OVC013 01/01 A2942 RMK SLP986
  • 031350Z AUTO 14006KT 9SM RA OVC006 01/01 A2942 RMK SLP989

TAF AMD TAF CZUM
Valide du 03 à 14h jusqu'au 04 à 02h UTC


031355Z 0314/0402 15005KT P6SM -RA BKN015 OVC030
TEMPO 0314/0317 2SM -RASN OVC006
PROB30 0314/0317 1SM -FZDZ BR
FM031700 20012KT P6SM BKN040
TEMPO 0317/0402 5SM -SHSNRA BKN020
BECMG 0322/0324 26010KT RMK FCST BASED ON AUTO OBS. NXT FCST BY 032000Z
FIR CZQX / Amérique du Nord



MET'MAP, la Météo Aéronautique d'un coup d'oeil ! - Copyright ORBIFLY Décembre 2007 - Disclaimer

ORBIFLY MET'MAP TEAM :

Programmation & Développement : Alexandra Zaïnal
Sur une idée originale de : Baudouin d'Aumeries
Assistance à la programmation : Marc-Olivier Méhu
Soutien technique & logistique : Manuel Goepfert

Contact : metmap@orbifly.com




SOURCES & CREDITS :

   NOAA